Time;durP1;ratioP1;P1;durP2;ratioP2;P2;SDS_P1;SDS_P2;PMS_P1;PMS_P2;Temp;Humidity;BMP_temperature;BMP_pressure;BME280_temperature;BME280_humidity;BME280_pressure;Samples;Min_cycle;Max_cycle;Signal;HPM_P1;HPM_P2
2023/07/12 06:40:59;;;;;;;8.10;4.50;;;;;;;21.23;86.18;96304.03;2094220;27;20574;-64
2023/07/12 06:43:09;;;;;;;13.52;4.20;;;;;;;21.49;86.23;96300.72;2084816;28;20553;-64
2023/07/12 06:45:37;;;;;;;8.23;4.68;;;;;;;21.60;85.93;96289.97;2096086;27;20579;-65
2023/07/12 06:47:52;;;;;;;8.15;4.43;;;;;;;21.46;84.05;96290.41;2101252;27;20571;-65
2023/07/12 06:50:08;;;;;;;11.93;4.82;;;;;;;21.50;84.29;96282.00;2091538;27;20645;-64
2023/07/12 06:52:36;;;;;;;14.80;4.68;;;;;;;21.68;84.02;96274.13;2085585;28;20556;-64
2023/07/12 06:53:38;;;;;;;7.90;4.43;;;;;;;21.78;83.68;96279.38;2081922;28;20266;-65
2023/07/12 06:55:59;;;;;;;9.50;4.65;;;;;;;21.90;82.28;96279.19;2084909;28;20571;-65
2023/07/12 06:58:19;;;;;;;8.50;4.80;;;;;;;21.96;81.25;96282.09;2101245;27;20560;-65
2023/07/12 07:00:40;;;;;;;10.38;4.28;;;;;;;21.78;79.40;96286.53;2083597;28;20572;-65
2023/07/12 07:03:03;;;;;;;11.25;4.25;;;;;;;21.89;79.60;96288.13;2082127;28;20565;-65
2023/07/12 07:05:25;;;;;;;8.05;3.72;;;;;;;21.99;78.28;96292.44;2090244;27;20563;-65
2023/07/12 07:07:50;;;;;;;7.93;3.90;;;;;;;22.22;77.50;96291.16;2092539;28;20564;-64
2023/07/12 07:10:09;;;;;;;5.78;3.28;;;;;;;22.26;78.40;96290.72;2099877;27;20600;-64
2023/07/12 07:12:30;;;;;;;5.20;3.03;;;;;;;22.24;76.31;96300.66;2086026;28;21027;-65
2023/07/12 07:14:56;;;;;;;8.25;2.88;;;;;;;22.30;75.74;96305.41;2083195;28;20577;-64
2023/07/12 07:17:17;;;;;;;15.88;3.10;;;;;;;22.63;74.78;96297.75;2092714;28;20596;-65
2023/07/12 07:19:54;;;;;;;6.35;2.80;;;;;;;22.90;73.91;96303.97;2100493;27;20562;-65
2023/07/12 07:22:33;;;;;;;8.80;2.63;;;;;;;23.02;72.61;96309.91;2083269;28;20577;-63
2023/07/12 07:25:06;;;;;;;7.32;3.00;;;;;;;22.80;69.89;96314.72;2084928;28;20559;-63
2023/07/12 07:27:49;;;;;;;7.30;2.55;;;;;;;23.08;70.92;96308.44;2094911;27;21075;-63
2023/07/12 07:28:51;;;;;;;5.88;3.10;;;;;;;22.98;70.81;96313.84;2087354;28;20207;-64
2023/07/12 07:31:14;;;;;;;7.30;2.97;;;;;;;22.99;71.04;96319.06;2094221;27;20573;-63
2023/07/12 07:33:37;;;;;;;38.90;13.90;;;;;;;22.85;70.98;96324.91;2084046;28;20541;-63
2023/07/12 07:35:55;;;;;;;11.52;2.60;;;;;;;22.92;70.54;96331.28;2077557;28;20574;-63
2023/07/12 07:38:27;;;;;;;6.85;2.50;;;;;;;23.21;69.51;96326.72;2082803;28;20569;-64
2023/07/12 07:40:51;;;;;;;5.07;2.90;;;;;;;23.14;69.75;96332.63;2084672;28;20567;-64
2023/07/12 07:43:13;;;;;;;5.72;2.70;;;;;;;23.19;68.53;96321.53;2098553;27;20565;-63
2023/07/12 07:45:30;;;;;;;11.27;1.92;;;;;;;23.39;69.16;96322.19;2083763;28;21062;-64
2023/07/12 07:47:51;;;;;;;11.27;2.78;;;;;;;23.33;68.55;96322.81;2084429;28;20563;-63
2023/07/12 07:50:11;;;;;;;7.22;2.60;;;;;;;23.43;68.55;96336.84;2090665;28;20556;-64
2023/07/12 07:52:29;;;;;;;10.18;2.72;;;;;;;23.68;68.51;96342.34;2082600;28;20557;-63
2023/07/12 07:54:48;;;;;;;7.40;2.60;;;;;;;23.69;68.15;96333.34;2111142;27;20551;-64
2023/07/12 07:57:09;;;;;;;10.32;5.05;;;;;;;23.91;67.92;96347.13;2102742;27;20547;-63
2023/07/12 07:59:27;;;;;;;6.20;3.55;;;;;;;23.89;66.35;96344.59;2101751;27;20553;-63
2023/07/12 08:01:49;;;;;;;9.13;4.13;;;;;;;24.09;66.29;96349.75;2088686;28;20539;-64
2023/07/12 08:04:08;;;;;;;9.75;3.78;;;;;;;24.22;66.82;96343.94;2093310;28;20583;-64
2023/07/12 08:06:28;;;;;;;15.23;5.30;;;;;;;24.70;65.75;96344.28;2085485;28;20546;-64
2023/07/12 08:09:01;;;;;;;31.40;27.27;;;;;;;24.92;63.62;96340.97;2089768;28;20536;-64
2023/07/12 08:11:35;;;;;;;53.47;44.90;;;;;;;25.20;63.60;96345.13;2087338;28;20555;-64
2023/07/12 08:14:00;;;;;;;88.97;79.90;;;;;;;24.83;62.55;96346.47;2089177;28;20558;-64
2023/07/12 08:16:27;;;;;;;104.05;95.15;;;;;;;24.92;62.54;96346.31;2089172;28;20564;-64
2023/07/12 08:18:50;;;;;;;1279.07;999.90;;;;;;;24.77;61.28;96361.28;2109318;27;20552;-64
2023/07/12 08:21:16;;;;;;;1318.32;999.90;;;;;;;24.67;61.38;96360.59;2097225;28;20527;-64
2023/07/12 08:23:47;;;;;;;1234.93;999.90;;;;;;;24.61;61.93;96357.56;2091870;28;20547;-64
2023/07/12 08:24:49;;;;;;;1232.00;999.90;;;;;;;24.61;61.53;96362.06;2088881;28;20318;-64
2023/07/12 08:25:52;;;;;;;1356.70;999.90;;;;;;;24.82;61.36;96360.81;2083572;28;20321;-64
2023/07/12 08:28:29;;;;;;;1120.75;972.88;;;;;;;25.06;61.42;96360.81;2097331;28;20557;-64
2023/07/12 08:29:31;;;;;;;1173.55;999.90;;;;;;;25.06;61.18;96362.66;2097477;28;20213;-64
2023/07/12 08:30:32;;;;;;;1137.80;999.90;;;;;;;25.10;60.99;96361.31;2094790;28;20660;-64
2023/07/12 08:31:34;;;;;;;1095.10;987.88;;;;;;;25.00;61.60;96360.66;2089434;28;20219;-64
2023/07/12 08:38:18;;;;;;;1521.43;999.90;;;;;;;23.99;64.64;96378.38;2097475;28;20565;-64
2023/07/12 08:40:46;;;;;;;1546.93;999.90;;;;;;;23.97;64.64;96375.84;2093847;28;20567;-63
2023/07/12 08:41:47;;;;;;;1061.03;887.28;;;;;;;24.04;63.24;96378.72;2089174;28;20856;-64
2023/07/12 08:42:50;;;;;;;809.38;711.30;;;;;;;24.33;62.41;96377.47;2089172;28;20192;-64
2023/07/12 08:43:52;;;;;;;1491.25;964.65;;;;;;;24.56;62.71;96370.56;2089128;28;20198;-64
2023/07/12 08:46:43;;;;;;;800.33;718.13;;;;;;;24.41;62.87;96375.69;2097455;28;20546;-64
2023/07/12 08:47:46;;;;;;;926.22;828.20;;;;;;;24.81;62.05;96377.81;2097421;28;20187;-64
2023/07/12 08:48:58;;;;;;;787.97;704.13;;;;;;;24.87;61.59;96383.31;2097521;28;20598;-64
2023/07/12 08:50:00;;;;;;;1114.95;988.47;;;;;;;24.87;60.84;96385.16;2097576;28;20271;-64
2023/07/12 08:51:13;;;;;;;1264.40;999.90;;;;;;;24.76;60.76;96381.00;2090650;28;20273;-64
2023/07/12 08:52:22;;;;;;;951.38;847.55;;;;;;;25.17;60.30;96385.53;2089057;28;20536;-64
2023/07/12 08:53:29;;;;;;;1094.35;989.05;;;;;;;25.43;59.54;96382.72;2089009;28;20200;-64
2023/07/12 08:54:34;;;;;;;836.40;762.40;;;;;;;25.30;58.95;96379.69;2088785;28;20208;-64
2023/07/12 08:55:37;;;;;;;884.80;808.42;;;;;;;25.34;58.48;96381.84;2088181;28;20199;-64
2023/07/12 08:56:39;;;;;;;960.08;877.42;;;;;;;25.23;56.36;96379.50;2088706;28;20177;-64
2023/07/12 08:57:41;;;;;;;1032.05;933.75;;;;;;;25.36;57.47;96376.38;2088566;28;20179;-64
2023/07/12 08:58:50;;;;;;;964.17;872.15;;;;;;;25.24;57.82;96381.19;2088332;28;20189;-63
2023/07/12 09:00:05;;;;;;;949.45;865.60;;;;;;;24.95;57.33;96385.19;2086300;28;20197;-65
2023/07/12 09:01:09;;;;;;;1022.08;929.85;;;;;;;24.84;57.63;96377.50;2087809;28;20258;-65
2023/07/12 09:02:22;;;;;;;945.33;860.45;;;;;;;24.71;58.64;96381.47;2087312;28;20211;-64
2023/07/12 09:03:24;;;;;;;1059.60;966.33;;;;;;;24.81;58.20;96388.50;2087652;28;20200;-64
2023/07/12 09:04:31;;;;;;;908.08;827.63;;;;;;;24.96;59.84;96376.16;2088319;28;20192;-64
2023/07/12 09:05:32;;;;;;;914.30;837.83;;;;;;;24.87;58.79;96383.31;2087886;28;20181;-63
2023/07/12 09:06:35;;;;;;;902.17;824.88;;;;;;;24.72;58.86;96390.31;2088517;28;20200;-64
2023/07/12 09:07:37;;;;;;;988.53;897.67;;;;;;;24.56;58.49;96391.91;2088096;28;20192;-64
2023/07/12 09:08:43;;;;;;;889.05;807.72;;;;;;;24.91;58.72;96392.69;2087277;28;20196;-64
2023/07/12 09:09:48;;;;;;;840.13;765.25;;;;;;;25.11;57.80;96392.38;2086952;28;20200;-64
2023/07/12 09:10:56;;;;;;;732.20;663.38;;;;;;;25.31;56.53;96389.38;2087015;28;20231;-64
2023/07/12 09:11:58;;;;;;;1861.88;940.70;;;;;;;25.39;58.02;96387.56;2087208;28;20254;-64
2023/07/12 09:13:00;;;;;;;757.25;690.58;;;;;;;25.17;57.59;96394.38;2087687;28;20257;-64
2023/07/12 09:14:02;;;;;;;900.72;815.83;;;;;;;25.10;57.91;96385.34;2087669;28;20200;-64
2023/07/12 09:15:11;;;;;;;1022.05;917.72;;;;;;;25.02;58.02;96394.19;2088038;28;20220;-65
2023/07/12 09:16:22;;;;;;;2250.00;999.90;;;;;;;24.76;59.27;96397.00;2086076;28;20250;-64
2023/07/12 09:17:26;;;;;;;2250.00;999.90;;;;;;;24.79;58.75;96386.00;2086538;28;20196;-64
2023/07/12 09:18:34;;;;;;;596.58;524.03;;;;;;;25.01;58.69;96389.84;2088198;28;20225;-64
2023/07/12 09:19:38;;;;;;;831.70;759.33;;;;;;;25.33;59.64;96395.38;2088157;28;20636;-64
2023/07/12 09:20:49;;;;;;;986.53;889.72;;;;;;;25.03;59.20;96382.53;2087338;28;20220;-62
2023/07/12 09:21:55;;;;;;;1400.70;755.92;;;;;;;25.12;58.49;96385.22;2087664;28;20193;-62
2023/07/12 09:22:58;;;;;;;1425.00;776.53;;;;;;;25.10;57.86;96388.03;2086436;28;20193;-62
2023/07/12 09:24:06;;;;;;;2250.00;999.90;;;;;;;25.03;57.30;96389.72;2087793;28;20196;-63
2023/07/12 09:25:19;;;;;;;530.58;404.23;;;;;;;25.09;58.43;96387.19;2087885;28;20228;-62
2023/07/12 09:26:29;;;;;;;1070.88;722.75;;;;;;;24.98;58.51;96386.69;2086481;28;20224;-62
2023/07/12 09:27:31;;;;;;;689.85;624.90;;;;;;;25.25;58.05;96389.06;2086964;28;20200;-63
2023/07/12 09:28:38;;;;;;;827.05;752.42;;;;;;;25.21;58.47;96387.69;2087652;28;20196;-63
2023/07/12 09:29:40;;;;;;;967.75;876.78;;;;;;;25.27;58.26;96383.53;2084773;28;20556;-64
2023/07/12 09:30:42;;;;;;;695.45;628.30;;;;;;;25.07;58.13;96378.50;2087210;28;20220;-64
2023/07/12 09:31:45;;;;;;;875.20;792.53;;;;;;;25.65;58.04;96388.38;2087552;28;20208;-63
2023/07/12 09:32:49;;;;;;;866.78;786.72;;;;;;;25.96;57.37;96385.78;2087607;28;20189;-64
2023/07/12 09:33:59;;;;;;;1077.55;969.38;;;;;;;25.92;57.26;96382.63;2088113;28;20201;-63
2023/07/12 09:35:27;;;;;;;810.40;741.13;;;;;;;26.69;57.06;96381.16;2087504;28;20208;-63
2023/07/12 09:36:29;;;;;;;1100.35;984.33;;;;;;;26.70;56.38;96376.63;2087644;28;20296;-64
2023/07/12 09:37:36;;;;;;;1063.25;962.70;;;;;;;26.76;56.42;96378.66;2085234;28;20272;-64
2023/07/12 09:38:38;;;;;;;1056.10;959.47;;;;;;;27.08;55.92;96375.94;2087588;28;20208;-63
2023/07/12 09:39:39;;;;;;;1088.53;985.22;;;;;;;26.80;55.35;96379.94;2087613;28;20192;-62
2023/07/12 09:40:43;;;;;;;968.38;881.60;;;;;;;26.63;56.22;96381.06;2086296;28;20796;-64
2023/07/12 09:41:50;;;;;;;958.20;871.30;;;;;;;26.89;56.14;96384.25;2085959;28;20200;-62
2023/07/12 09:42:56;;;;;;;1111.85;990.45;;;;;;;27.03;54.71;96379.13;2086293;28;20203;-63
2023/07/12 09:44:00;;;;;;;1009.88;914.90;;;;;;;27.30;55.09;96382.28;2087043;28;20200;-63
2023/07/12 09:45:04;;;;;;;1066.45;961.80;;;;;;;26.72;56.41;96382.66;2087214;28;20275;-64
2023/07/12 09:46:48;;;;;;;972.55;881.35;;;;;;;26.58;56.02;96381.56;2086646;28;20236;-63
2023/07/12 09:48:08;;;;;;;1149.70;999.90;;;;;;;25.97;57.82;96381.31;2068300;28;20198;-63
2023/07/12 09:49:17;;;;;;;968.20;880.47;;;;;;;26.24;57.68;96377.38;2086331;28;20193;-63
2023/07/12 09:50:26;;;;;;;1000.70;907.60;;;;;;;26.87;56.91;96374.75;2085371;28;20200;-63
2023/07/12 09:51:51;;;;;;;995.15;904.65;;;;;;;26.96;56.00;96380.88;2086859;28;20928;-63
2023/07/12 09:53:05;;;;;;;1008.55;904.25;;;;;;;26.50;56.38;96371.75;2086641;28;20279;-62
2023/07/12 09:54:26;;;;;;;1017.38;917.83;;;;;;;26.63;56.24;96381.88;2085953;28;20242;-63
2023/07/12 09:55:38;;;;;;;895.53;810.90;;;;;;;26.36;55.82;96384.03;2086963;28;20200;-63
2023/07/12 09:56:55;;;;;;;1021.55;927.33;;;;;;;26.79;56.20;96372.97;2087114;28;20254;-63
2023/07/12 09:58:06;;;;;;;1068.93;956.38;;;;;;;26.50;56.21;96376.25;2080565;28;20193;-62
2023/07/12 09:59:28;;;;;;;910.85;829.85;;;;;;;26.67;55.80;96374.34;2080910;28;20205;-63
2023/07/12 10:00:48;;;;;;;1003.28;909.47;;;;;;;26.80;55.33;96371.91;2080383;28;20205;-63
2023/07/12 10:01:54;;;;;;;905.88;823.60;;;;;;;27.33;54.97;96371.22;2080826;28;20204;-63
2023/07/12 10:03:02;;;;;;;983.72;888.90;;;;;;;26.84;55.22;96369.72;2081286;28;20653;-63
2023/07/12 10:04:32;;;;;;;969.47;880.25;;;;;;;26.60;55.47;96371.53;2080916;28;20224;-62
2023/07/12 10:05:35;;;;;;;892.88;813.85;;;;;;;26.95;55.30;96369.31;2080449;28;20186;-62
2023/07/12 10:06:46;;;;;;;996.22;905.58;;;;;;;27.44;55.30;96360.09;2080690;28;20205;-61
2023/07/12 10:07:52;;;;;;;977.15;888.33;;;;;;;27.85;55.14;96358.84;2080483;28;20567;-64
2023/07/12 10:09:16;;;;;;;1033.47;930.67;;;;;;;27.59;53.08;96353.91;2080854;28;20546;-64
2023/07/12 10:10:23;;;;;;;956.47;869.58;;;;;;;27.38;53.09;96368.81;2080355;28;20193;-63
2023/07/12 10:11:38;;;;;;;1014.03;919.92;;;;;;;27.44;52.78;96362.78;2081671;28;20603;-63
2023/07/12 10:12:49;;;;;;;990.53;897.20;;;;;;;27.37;53.54;96365.28;2078546;28;20601;-62
2023/07/12 10:13:56;;;;;;;765.45;657.40;;;;;;;27.27;52.55;96364.72;2079956;28;20224;-61
2023/07/12 10:14:58;;;;;;;796.58;718.15;;;;;;;27.31;53.53;96367.88;2080560;28;20275;-61
2023/07/12 10:16:02;;;;;;;629.60;524.35;;;;;;;26.91;52.95;96368.00;2080655;28;20323;-60
2023/07/12 10:17:09;;;;;;;896.42;804.03;;;;;;;26.82;53.63;96367.22;2081499;28;20566;-62
2023/07/12 10:18:26;;;;;;;895.65;811.70;;;;;;;26.73;53.52;96371.81;2082056;28;20827;-61
2023/07/12 10:19:37;;;;;;;931.00;846.58;;;;;;;26.64;54.08;96364.81;2080688;28;20196;-61
2023/07/12 10:20:39;;;;;;;805.85;734.63;;;;;;;26.52;55.02;96371.56;2076520;28;20299;-62
2023/07/12 10:21:41;;;;;;;826.03;753.80;;;;;;;26.92;54.31;96368.84;2081511;28;20605;-61
2023/07/12 10:22:45;;;;;;;610.70;553.70;;;;;;;26.80;54.28;96369.25;2080902;28;20868;-62
2023/07/12 10:23:56;;;;;;;825.78;747.70;;;;;;;26.96;53.31;96368.31;2081035;28;20193;-61
2023/07/12 10:25:00;;;;;;;790.05;717.75;;;;;;;27.28;53.98;96363.69;2081271;28;20248;-62
2023/07/12 10:26:04;;;;;;;842.60;765.28;;;;;;;27.36;53.35;96360.97;2080257;28;20271;-62
2023/07/12 10:27:37;;;;;;;694.60;626.47;;;;;;;27.17;53.59;96359.63;2080968;28;20217;-62
2023/07/12 10:29:08;;;;;;;625.75;565.03;;;;;;;27.45;52.96;96364.44;2073508;28;20205;-62
2023/07/12 10:30:17;;;;;;;639.65;576.55;;;;;;;27.85;52.88;96358.84;2077048;28;20539;-62
2023/07/12 10:31:46;;;;;;;818.85;737.28;;;;;;;28.38;52.16;96358.75;2078539;28;20233;-61
2023/07/12 10:32:53;;;;;;;733.50;664.47;;;;;;;28.23;51.33;96360.63;2080279;28;20197;-62
2023/07/12 10:34:07;;;;;;;704.30;638.13;;;;;;;28.07;51.32;96357.09;2079980;28;20299;-62
2023/07/12 10:35:30;;;;;;;1074.07;722.67;;;;;;;27.76;51.88;96354.59;2078989;28;20503;-63
2023/07/12 10:36:34;;;;;;;782.22;704.72;;;;;;;27.29;53.31;96361.88;2081056;28;20859;-63
2023/07/12 10:37:48;;;;;;;801.42;722.05;;;;;;;27.12;53.46;96353.97;2081458;28;20193;-63
2023/07/12 10:38:50;;;;;;;997.35;652.13;;;;;;;27.02;53.23;96346.16;2080857;28;20197;-62
2023/07/12 10:39:51;;;;;;;751.22;675.25;;;;;;;27.63;52.89;96353.38;2081234;28;20201;-61
2023/07/12 10:40:59;;;;;;;728.60;653.83;;;;;;;27.58;52.52;96341.50;2080725;28;20225;-61
2023/07/12 10:42:17;;;;;;;508.00;454.20;;;;;;;27.52;52.25;96361.84;2081105;28;20288;-62
2023/07/12 10:43:40;;;;;;;2250.00;999.90;;;;;;;27.18;52.46;96358.56;2081048;28;20204;-61
2023/07/12 10:44:49;;;;;;;2250.00;999.90;;;;;;;27.24;51.98;96353.53;2080142;28;20220;-61
2023/07/12 10:45:55;;;;;;;665.72;596.47;;;;;;;27.24;52.19;96351.69;2079962;28;20240;-61
2023/07/12 10:47:01;;;;;;;672.60;603.28;;;;;;;27.63;52.54;96349.84;2080196;28;20263;-61
2023/07/12 10:48:04;;;;;;;713.83;642.85;;;;;;;27.47;54.18;96358.88;2080219;28;20205;-61
2023/07/12 10:49:16;;;;;;;614.10;548.72;;;;;;;27.86;52.47;96357.81;2080940;28;20197;-61
2023/07/12 10:50:33;;;;;;;700.65;636.28;;;;;;;28.41;51.43;96358.38;2079292;28;20197;-61
2023/07/12 10:51:37;;;;;;;549.97;494.60;;;;;;;28.39;50.88;96356.88;2079876;28;20655;-60
2023/07/12 10:53:11;;;;;;;734.78;666.13;;;;;;;28.91;50.06;96349.63;2080908;28;20205;-59
2023/07/12 10:54:29;;;;;;;575.05;519.45;;;;;;;28.43;51.44;96356.34;2079476;28;20205;-60
2023/07/12 10:56:02;;;;;;;2250.00;999.90;;;;;;;27.67;51.10;96349.28;2080324;28;20205;-60
2023/07/12 10:57:07;;;;;;;427.95;375.90;;;;;;;27.10;52.93;96353.31;2080159;28;20815;-61
2023/07/12 10:58:26;;;;;;;487.70;429.45;;;;;;;26.98;53.95;96349.38;2081017;28;20197;-62
2023/07/12 10:59:30;;;;;;;728.67;649.30;;;;;;;27.19;53.63;96344.19;2080597;28;20815;-61
2023/07/12 11:00:48;;;;;;;685.88;615.85;;;;;;;27.27;53.33;96347.81;2079661;28;20189;-62
2023/07/12 11:01:54;;;;;;;658.80;589.22;;;;;;;26.92;53.24;96336.69;2080770;28;20787;-61
2023/07/12 11:03:11;;;;;;;741.97;667.25;;;;;;;26.79;53.47;96340.81;2079584;28;20212;-62
2023/07/12 11:04:16;;;;;;;778.53;699.97;;;;;;;26.89;54.14;96341.41;2080350;28;20204;-62
2023/07/12 11:05:37;;;;;;;681.58;616.63;;;;;;;27.62;54.40;96337.47;2079315;28;20204;-61
2023/07/12 11:07:24;;;;;;;836.45;750.42;;;;;;;27.82;52.84;96335.06;2080022;28;20212;-62
2023/07/12 11:08:31;;;;;;;2250.00;999.90;;;;;;;27.41;52.78;96336.31;2080427;28;20234;-62
2023/07/12 11:09:42;;;;;;;791.67;712.00;;;;;;;27.46;53.22;96333.09;2078687;28;20193;-62
2023/07/12 11:10:46;;;;;;;745.45;662.50;;;;;;;27.65;52.74;96332.53;2080206;28;20232;-62
2023/07/12 11:11:57;;;;;;;735.80;655.67;;;;;;;27.67;52.74;96322.47;2080712;28;20200;-62
2023/07/12 11:13:12;;;;;;;689.72;615.85;;;;;;;27.62;52.96;96330.25;2080601;28;20208;-62
2023/07/12 11:14:23;;;;;;;780.40;707.90;;;;;;;28.17;52.77;96330.81;2079701;28;20303;-62
2023/07/12 11:15:27;;;;;;;569.60;511.13;;;;;;;27.65;52.36;96329.88;2079895;28;20207;-62
2023/07/12 11:16:29;;;;;;;618.60;556.65;;;;;;;27.31;52.84;96312.44;2080215;28;20194;-62
2023/07/12 11:17:47;;;;;;;1362.07;735.40;;;;;;;26.86;53.67;96339.06;2080082;28;20234;-62
2023/07/12 11:18:52;;;;;;;698.97;626.00;;;;;;;26.55;54.41;96336.41;2080239;28;20226;-62
2023/07/12 11:20:04;;;;;;;751.33;683.25;;;;;;;26.62;55.20;96323.97;2080579;28;20208;-62
2023/07/12 11:21:24;;;;;;;772.00;691.92;;;;;;;27.43;54.42;96322.75;2073856;28;20224;-62
2023/07/12 11:22:52;;;;;;;681.55;618.55;;;;;;;28.51;53.50;96328.53;2076542;28;20212;-62
2023/07/12 11:23:54;;;;;;;645.63;584.20;;;;;;;28.82;52.85;96322.91;2062421;28;20432;-62
2023/07/12 11:25:22;;;;;;;599.70;530.80;;;;;;;29.54;52.29;96322.09;2080137;28;20836;-62
2023/07/12 11:26:30;;;;;;;654.13;590.95;;;;;;;29.51;52.27;96322.47;2079980;28;20411;-62
2023/07/12 11:28:01;;;;;;;712.70;643.10;;;;;;;29.48;51.59;96326.38;2079415;28;20693;-62
2023/07/12 11:29:32;;;;;;;756.42;681.65;;;;;;;29.59;52.28;96325.84;2080062;28;20197;-62
2023/07/12 11:30:34;;;;;;;695.45;630.15;;;;;;;29.94;52.32;96335.81;2070525;28;20201;-62
2023/07/12 11:31:41;;;;;;;736.97;666.88;;;;;;;29.53;51.32;96336.56;2080430;28;20200;-62
2023/07/12 11:32:46;;;;;;;880.28;796.47;;;;;;;29.24;51.50;96331.16;2079831;28;20227;-62
2023/07/12 11:34:14;;;;;;;649.13;585.50;;;;;;;28.95;52.20;96321.34;2080466;28;20287;-62
2023/07/12 11:35:24;;;;;;;430.88;383.15;;;;;;;28.71;52.15;96328.78;2079837;28;20805;-62
2023/07/12 11:36:31;;;;;;;2266.67;999.90;;;;;;;28.54;51.14;96335.38;2078980;28;20221;-62
2023/07/12 11:37:40;;;;;;;945.73;477.83;;;;;;;29.15;50.56;96337.66;2080377;28;20909;-62
2023/07/12 11:38:43;;;;;;;2266.67;999.90;;;;;;;28.74;49.72;96333.75;2080372;28;21188;-62
2023/07/12 11:39:46;;;;;;;2266.67;999.90;;;;;;;28.96;49.63;96334.63;2080282;28;20425;-62
2023/07/12 11:40:52;;;;;;;986.40;547.33;;;;;;;29.32;49.88;96339.09;2079475;28;20969;-62
2023/07/12 11:42:00;;;;;;;2266.67;999.90;;;;;;;29.69;49.17;96338.94;2080377;28;20431;-62
2023/07/12 11:43:23;;;;;;;2266.67;999.90;;;;;;;29.28;48.81;96335.13;2079428;28;21326;-62
2023/07/12 11:44:25;;;;;;;535.00;480.70;;;;;;;29.44;48.20;96342.06;2079255;28;20434;-62
2023/07/12 11:45:27;;;;;;;2266.67;999.90;;;;;;;29.44;48.67;96352.81;2080014;28;20811;-61
2023/07/12 11:46:33;;;;;;;905.47;812.50;;;;;;;28.83;48.42;96337.16;2079526;28;20426;-61
2023/07/12 11:47:40;;;;;;;2266.67;999.90;;;;;;;29.07;48.15;96329.75;2079843;28;20512;-61
2023/07/12 11:48:49;;;;;;;2250.00;999.90;;;;;;;29.39;46.96;96336.44;2079913;28;20453;-61
2023/07/12 11:49:57;;;;;;;1427.85;795.10;;;;;;;29.30;47.12;96343.81;2079194;28;20254;-61
2023/07/12 11:51:03;;;;;;;2250.00;999.90;;;;;;;29.50;47.76;96335.09;2079562;28;20225;-62
2023/07/12 11:52:15;;;;;;;2266.67;999.90;;;;;;;29.74;47.39;96328.44;2080546;28;20211;-62
2023/07/12 11:53:18;;;;;;;2266.67;999.90;;;;;;;30.03;48.27;96323.00;2080211;28;20896;-62
2023/07/12 11:54:33;;;;;;;2266.67;999.90;;;;;;;30.67;46.89;96323.72;2080431;28;20426;-62
2023/07/12 11:55:35;;;;;;;2266.67;999.90;;;;;;;30.54;47.20;96324.50;2079039;28;20519;-62
2023/07/12 11:56:40;;;;;;;2266.67;999.90;;;;;;;30.71;47.22;96331.16;2080468;28;20832;-61
2023/07/12 11:57:44;;;;;;;771.10;696.00;;;;;;;30.48;46.28;96325.31;2080211;28;20509;-62
2023/07/12 11:58:45;;;;;;;2266.67;999.90;;;;;;;30.56;47.60;96331.38;2080244;28;20479;-61
2023/07/12 11:59:49;;;;;;;782.00;699.53;;;;;;;30.42;46.65;96340.38;2079520;28;20491;-62
2023/07/12 12:00:55;;;;;;;828.00;745.00;;;;;;;30.04;46.44;96336.28;2079716;28;20500;-62
2023/07/12 12:01:56;;;;;;;753.37;675.13;;;;;;;30.27;46.48;96340.53;2080413;28;20433;-61
2023/07/12 12:02:59;;;;;;;875.13;791.23;;;;;;;29.65;47.29;96335.00;2080370;28;20487;-62
2023/07/12 12:04:04;;;;;;;949.23;857.80;;;;;;;29.79;47.45;96328.66;2080378;28;20489;-61
2023/07/12 12:05:21;;;;;;;612.20;547.08;;;;;;;29.64;46.77;96327.94;2080187;28;20426;-61
2023/07/12 12:06:23;;;;;;;756.73;682.73;;;;;;;30.40;46.37;96332.50;2079844;28;20305;-61
2023/07/12 12:07:39;;;;;;;729.40;657.63;;;;;;;30.18;46.62;96336.34;2080028;28;20430;-61
2023/07/12 12:08:48;;;;;;;793.63;717.33;;;;;;;29.44;47.75;96327.81;2079539;28;20426;-61
2023/07/12 12:09:50;;;;;;;777.60;703.60;;;;;;;28.94;48.20;96319.72;2079187;28;20513;-61
2023/07/12 12:10:54;;;;;;;2266.67;999.90;;;;;;;28.78;49.33;96335.03;2079822;28;20669;-61
2023/07/12 12:11:57;;;;;;;2266.67;999.90;;;;;;;29.04;51.09;96327.44;2080106;28;20426;-61
2023/07/12 12:12:59;;;;;;;2266.67;999.90;;;;;;;28.98;51.20;96332.56;2079885;28;20475;-61
2023/07/12 12:14:01;;;;;;;2266.67;999.90;;;;;;;29.45;52.30;96332.16;2080318;28;20426;-61
2023/07/12 12:15:17;;;;;;;2266.67;999.90;;;;;;;29.53;51.97;96334.69;2080119;28;20491;-61
2023/07/12 12:16:22;;;;;;;2266.67;999.90;;;;;;;28.88;52.55;96336.59;2079766;28;20576;-61
2023/07/12 12:17:36;;;;;;;2266.67;999.90;;;;;;;29.00;52.36;96324.28;2079958;28;21077;-62
2023/07/12 12:18:48;;;;;;;2266.67;999.90;;;;;;;29.27;51.77;96332.63;2080119;28;20960;-61
2023/07/12 12:20:02;;;;;;;2266.67;999.90;;;;;;;28.84;53.46;96328.91;2079292;28;20426;-61
2023/07/12 12:21:14;;;;;;;2266.67;999.90;;;;;;;29.25;52.93;96321.22;2078865;28;20492;-61
2023/07/12 12:22:27;;;;;;;2266.67;999.90;;;;;;;29.45;52.28;96324.91;2075269;28;20515;-62
2023/07/12 12:23:41;;;;;;;2266.67;999.90;;;;;;;29.68;49.71;96318.44;2074382;28;20423;-61
2023/07/12 12:24:47;;;;;;;2266.67;999.90;;;;;;;29.45;49.38;96314.16;2080167;28;20418;-62
2023/07/12 12:25:51;;;;;;;2266.67;999.90;;;;;;;29.14;48.16;96312.66;2079214;28;21014;-62
2023/07/12 12:26:52;;;;;;;1069.27;570.50;;;;;;;28.92;49.03;96311.81;2078859;28;20426;-61
2023/07/12 12:27:54;;;;;;;2266.67;999.90;;;;;;;29.04;48.84;96319.38;2080212;28;20523;-62
2023/07/12 12:28:58;;;;;;;2266.67;999.90;;;;;;;28.82;48.89;96312.16;2080279;28;20430;-61
2023/07/12 12:30:22;;;;;;;781.67;702.83;;;;;;;28.33;48.79;96313.66;2080076;28;20791;-62
2023/07/12 12:31:27;;;;;;;1705.00;878.87;;;;;;;28.33;48.93;96313.66;2079434;28;20489;-61
2023/07/12 12:32:29;;;;;;;721.33;645.60;;;;;;;28.63;49.02;96310.06;2080227;28;20971;-62
2023/07/12 12:33:30;;;;;;;843.40;762.67;;;;;;;28.73;48.03;96315.97;2080197;28;20510;-62
2023/07/12 12:34:38;;;;;;;2266.67;999.90;;;;;;;28.72;48.28;96300.06;2080197;28;20419;-61
2023/07/12 12:35:55;;;;;;;2266.67;999.90;;;;;;;29.36;47.44;96299.22;2079031;28;20450;-61
2023/07/12 12:37:07;;;;;;;2266.67;999.90;;;;;;;29.47;48.60;96295.97;2078964;28;20430;-62
2023/07/12 12:38:25;;;;;;;2266.67;999.90;;;;;;;29.79;50.05;96291.00;2078886;28;20430;-62
2023/07/12 12:39:27;;;;;;;2266.67;999.90;;;;;;;30.11;49.97;96287.88;2079668;28;20472;-61
2023/07/12 12:40:28;;;;;;;2266.67;999.90;;;;;;;30.42;49.62;96294.59;2079628;28;20422;-61
2023/07/12 12:41:45;;;;;;;2266.67;999.90;;;;;;;30.37;49.02;96284.44;2080188;28;20913;-62
2023/07/12 12:43:05;;;;;;;2266.67;999.90;;;;;;;30.31;49.44;96285.25;2079876;28;20457;-63
2023/07/12 12:44:09;;;;;;;2266.67;999.90;;;;;;;30.41;49.08;96291.09;2080140;28;20430;-62
2023/07/12 12:45:10;;;;;;;2266.67;999.90;;;;;;;30.23;49.91;96299.72;2079771;28;20426;-62
2023/07/12 12:46:12;;;;;;;2266.67;999.90;;;;;;;30.67;49.69;96292.22;2079480;28;20473;-62
2023/07/12 12:47:28;;;;;;;2266.67;999.90;;;;;;;29.97;49.55;96295.06;2079259;28;20469;-62
2023/07/12 12:48:30;;;;;;;2266.67;999.90;;;;;;;29.58;51.24;96299.16;2079888;28;20855;-62
2023/07/12 12:49:52;;;;;;;2266.67;999.90;;;;;;;29.65;50.67;96300.03;2079484;28;20933;-62
2023/07/12 12:50:57;;;;;;;2266.67;999.90;;;;;;;30.22;50.12;96298.06;2078977;28;20477;-62
2023/07/12 12:52:25;;;;;;;2266.67;999.90;;;;;;;30.36;50.12;96300.78;2079144;28;20888;-62
2023/07/12 12:53:29;;;;;;;2266.67;999.90;;;;;;;30.04;50.18;96298.63;2079741;28;20996;-61
2023/07/12 12:54:49;;;;;;;2266.67;999.90;;;;;;;30.05;50.48;96299.44;2079896;28;20434;-61